sensor_id;sensor_type;location;lat;lon;timestamp;pressure;altitude;pressure_sealevel;temperature;humidity
46111;BME280;31849;55.992;37.252;2022-08-18T00:00:01;99369.44;;;19.76;50.58
46111;BME280;31849;55.992;37.252;2022-08-18T00:05:05;99375.56;;;19.77;50.69
46111;BME280;31849;55.992;37.252;2022-08-18T00:10:14;99375.88;;;19.69;50.82
46111;BME280;31849;55.992;37.252;2022-08-18T00:15:20;99363.16;;;19.58;51.36
46111;BME280;31849;55.992;37.252;2022-08-18T00:20:23;99385.66;;;19.67;51.58
46111;BME280;31849;55.992;37.252;2022-08-18T00:25:28;99379.69;;;19.62;51.40
46111;BME280;31849;55.992;37.252;2022-08-18T00:30:32;99381.72;;;19.55;51.63
46111;BME280;31849;55.992;37.252;2022-08-18T00:35:37;99373.69;;;19.58;51.94
46111;BME280;31849;55.992;37.252;2022-08-18T00:40:45;99369.34;;;19.57;52.03
46111;BME280;31849;55.992;37.252;2022-08-18T00:45:49;99384.53;;;19.50;51.87
46111;BME280;31849;55.992;37.252;2022-08-18T00:50:54;99389.88;;;19.49;52.01
46111;BME280;31849;55.992;37.252;2022-08-18T00:56:04;99383.94;;;19.44;52.79
46111;BME280;31849;55.992;37.252;2022-08-18T01:01:12;99388.81;;;19.31;53.11
46111;BME280;31849;55.992;37.252;2022-08-18T01:06:24;99385.19;;;19.11;53.78
46111;BME280;31849;55.992;37.252;2022-08-18T01:11:31;99408.91;;;19.11;53.29
46111;BME280;31849;55.992;37.252;2022-08-18T01:16:35;99391.06;;;18.96;53.29
46111;BME280;31849;55.992;37.252;2022-08-18T01:22:14;99400.34;;;19.06;53.11
46111;BME280;31849;55.992;37.252;2022-08-18T01:27:20;99395.97;;;19.05;53.79
46111;BME280;31849;55.992;37.252;2022-08-18T01:32:24;99396.28;;;18.97;53.78
46111;BME280;31849;55.992;37.252;2022-08-18T01:37:28;99394.84;;;18.89;54.17
46111;BME280;31849;55.992;37.252;2022-08-18T01:42:34;99402.75;;;18.89;54.00
46111;BME280;31849;55.992;37.252;2022-08-18T01:47:37;99403.66;;;18.88;53.86
46111;BME280;31849;55.992;37.252;2022-08-18T01:52:58;99414.41;;;18.81;54.19
46111;BME280;31849;55.992;37.252;2022-08-18T01:58:03;99421.50;;;18.79;54.28
46111;BME280;31849;55.992;37.252;2022-08-18T02:03:10;99417.22;;;18.77;54.60
46111;BME280;31849;55.992;37.252;2022-08-18T02:08:15;99406.13;;;18.67;54.37
46111;BME280;31849;55.992;37.252;2022-08-18T02:13:20;99414.69;;;18.74;54.42
46111;BME280;31849;55.992;37.252;2022-08-18T02:18:25;99413.66;;;18.78;54.61
46111;BME280;31849;55.992;37.252;2022-08-18T02:23:49;99418.94;;;18.78;54.66
46111;BME280;31849;55.992;37.252;2022-08-18T02:28:56;99415.88;;;18.90;54.44
46111;BME280;31849;55.992;37.252;2022-08-18T02:34:00;99433.09;;;18.99;54.23
46111;BME280;31849;55.992;37.252;2022-08-18T02:39:03;99433.09;;;18.99;54.02
46111;BME280;31849;55.992;37.252;2022-08-18T02:44:08;99431.91;;;19.08;53.79
46111;BME280;31849;55.992;37.252;2022-08-18T02:49:11;99429.38;;;19.05;53.79
46111;BME280;31849;55.992;37.252;2022-08-18T02:54:15;99436.88;;;19.15;53.78
46111;BME280;31849;55.992;37.252;2022-08-18T02:59:21;99432.03;;;19.27;53.45
46111;BME280;31849;55.992;37.252;2022-08-18T03:04:28;99430.63;;;19.40;53.94
46111;BME280;31849;55.992;37.252;2022-08-18T03:09:33;99435.91;;;19.40;53.79
46111;BME280;31849;55.992;37.252;2022-08-18T03:14:38;99445.66;;;19.38;54.01
46111;BME280;31849;55.992;37.252;2022-08-18T03:19:41;99438.03;;;19.54;53.17
46111;BME280;31849;55.992;37.252;2022-08-18T03:24:48;99442.53;;;19.73;52.88
46111;BME280;31849;55.992;37.252;2022-08-18T03:29:53;99445.78;;;19.81;52.75
46111;BME280;31849;55.992;37.252;2022-08-18T03:34:59;99446.03;;;19.97;52.37
46111;BME280;31849;55.992;37.252;2022-08-18T03:40:04;99448.38;;;20.46;51.30
46111;BME280;31849;55.992;37.252;2022-08-18T03:45:10;99443.53;;;20.76;50.70
46111;BME280;31849;55.992;37.252;2022-08-18T03:50:18;99431.94;;;20.99;50.02
46111;BME280;31849;55.992;37.252;2022-08-18T03:55:22;99448.03;;;24.19;42.80
46111;BME280;31849;55.992;37.252;2022-08-18T04:00:27;99430.72;;;26.64;38.21
46111;BME280;31849;55.992;37.252;2022-08-18T04:05:31;99442.66;;;28.55;34.65
46111;BME280;31849;55.992;37.252;2022-08-18T04:10:35;99444.13;;;29.50;33.67
46111;BME280;31849;55.992;37.252;2022-08-18T04:15:40;99451.34;;;30.77;30.83
46111;BME280;31849;55.992;37.252;2022-08-18T04:20:44;99450.72;;;31.76;29.27
46111;BME280;31849;55.992;37.252;2022-08-18T04:26:01;99450.47;;;33.23;27.39
46111;BME280;31849;55.992;37.252;2022-08-18T04:31:07;99454.25;;;34.56;25.90
46111;BME280;31849;55.992;37.252;2022-08-18T04:36:13;99456.22;;;36.17;23.46
46111;BME280;31849;55.992;37.252;2022-08-18T04:41:21;99456.06;;;35.00;24.23
46111;BME280;31849;55.992;37.252;2022-08-18T04:46:32;99450.38;;;34.50;24.78
46111;BME280;31849;55.992;37.252;2022-08-18T04:51:39;99451.94;;;36.72;22.59
46111;BME280;31849;55.992;37.252;2022-08-18T04:57:08;99455.44;;;38.38;20.97
46111;BME280;31849;55.992;37.252;2022-08-18T05:02:14;99463.75;;;37.43;21.10
46111;BME280;31849;55.992;37.252;2022-08-18T05:07:19;99456.25;;;38.00;20.51
46111;BME280;31849;55.992;37.252;2022-08-18T05:12:23;99468.88;;;39.80;18.74
46111;BME280;31849;55.992;37.252;2022-08-18T05:17:29;99467.50;;;41.81;16.99
46111;BME280;31849;55.992;37.252;2022-08-18T05:22:36;99451.34;;;42.33;16.46
46111;BME280;31849;55.992;37.252;2022-08-18T05:27:41;99470.84;;;40.86;17.76
46111;BME280;31849;55.992;37.252;2022-08-18T05:32:46;99462.91;;;41.33;16.71
46111;BME280;31849;55.992;37.252;2022-08-18T05:38:05;99473.91;;;41.60;17.28
46111;BME280;31849;55.992;37.252;2022-08-18T05:43:13;99482.84;;;42.09;15.92
46111;BME280;31849;55.992;37.252;2022-08-18T05:48:20;99480.13;;;42.15;16.07
46111;BME280;31849;55.992;37.252;2022-08-18T05:53:23;99482.00;;;42.42;15.95
46111;BME280;31849;55.992;37.252;2022-08-18T05:58:50;99488.44;;;43.14;15.19
46111;BME280;31849;55.992;37.252;2022-08-18T06:04:01;99479.72;;;44.40;14.87
46111;BME280;31849;55.992;37.252;2022-08-18T06:09:11;99484.13;;;43.38;14.57
46111;BME280;31849;55.992;37.252;2022-08-18T06:14:15;99479.75;;;44.33;13.91
46111;BME280;31849;55.992;37.252;2022-08-18T06:19:33;99488.03;;;45.14;13.78
46111;BME280;31849;55.992;37.252;2022-08-18T06:24:46;99493.72;;;43.61;14.89
46111;BME280;31849;55.992;37.252;2022-08-18T06:30:04;99490.00;;;42.77;14.94
46111;BME280;31849;55.992;37.252;2022-08-18T06:35:17;99499.19;;;43.02;15.51
46111;BME280;31849;55.992;37.252;2022-08-18T06:40:21;99499.81;;;44.02;14.67
46111;BME280;31849;55.992;37.252;2022-08-18T06:45:30;99490.91;;;44.82;14.33
46111;BME280;31849;55.992;37.252;2022-08-18T06:50:45;99497.84;;;46.79;12.89
46111;BME280;31849;55.992;37.252;2022-08-18T06:55:51;99501.63;;;46.30;12.76
46111;BME280;31849;55.992;37.252;2022-08-18T07:00:56;99490.00;;;45.44;13.27
46111;BME280;31849;55.992;37.252;2022-08-18T07:06:04;99495.19;;;45.34;13.10
46111;BME280;31849;55.992;37.252;2022-08-18T07:11:13;99499.84;;;45.82;13.21
46111;BME280;31849;55.992;37.252;2022-08-18T07:16:22;99492.59;;;45.02;13.43
46111;BME280;31849;55.992;37.252;2022-08-18T07:22:01;99496.47;;;43.61;14.46
46111;BME280;31849;55.992;37.252;2022-08-18T07:27:07;99498.91;;;43.76;14.15
46111;BME280;31849;55.992;37.252;2022-08-18T07:32:14;99505.06;;;44.35;13.89
46111;BME280;31849;55.992;37.252;2022-08-18T07:37:25;99506.03;;;43.84;14.21
46111;BME280;31849;55.992;37.252;2022-08-18T07:42:35;99507.59;;;44.81;13.76
46111;BME280;31849;55.992;37.252;2022-08-18T07:48:05;99511.41;;;44.98;13.06
46111;BME280;31849;55.992;37.252;2022-08-18T07:53:38;99495.47;;;44.70;13.94
46111;BME280;31849;55.992;37.252;2022-08-18T07:59:01;99508.28;;;44.25;13.44
46111;BME280;31849;55.992;37.252;2022-08-18T08:04:10;99508.22;;;43.10;14.85
46111;BME280;31849;55.992;37.252;2022-08-18T08:09:34;99501.50;;;41.98;15.68
46111;BME280;31849;55.992;37.252;2022-08-18T08:14:41;99499.88;;;42.31;15.31
46111;BME280;31849;55.992;37.252;2022-08-18T08:20:03;99506.81;;;41.38;14.53
46111;BME280;31849;55.992;37.252;2022-08-18T08:25:17;99505.13;;;40.46;15.56
46111;BME280;31849;55.992;37.252;2022-08-18T08:30:45;99499.50;;;40.04;16.38
46111;BME280;31849;55.992;37.252;2022-08-18T08:36:00;99502.94;;;38.65;17.12
46111;BME280;31849;55.992;37.252;2022-08-18T08:41:08;99493.63;;;36.54;20.04
46111;BME280;31849;55.992;37.252;2022-08-18T08:46:17;99491.75;;;36.79;19.52
46111;BME280;31849;55.992;37.252;2022-08-18T08:51:33;99493.28;;;36.66;19.54
46111;BME280;31849;55.992;37.252;2022-08-18T08:56:44;99487.66;;;35.34;19.98
46111;BME280;31849;55.992;37.252;2022-08-18T09:01:55;99489.25;;;34.84;20.97
46111;BME280;31849;55.992;37.252;2022-08-18T09:07:04;99491.50;;;34.08;22.23
46111;BME280;31849;55.992;37.252;2022-08-18T09:12:38;99484.91;;;33.19;22.59
46111;BME280;31849;55.992;37.252;2022-08-18T09:18:24;99478.69;;;32.81;23.90
46111;BME280;31849;55.992;37.252;2022-08-18T09:23:39;99470.31;;;32.65;24.29
46111;BME280;31849;55.992;37.252;2022-08-18T09:28:55;99488.00;;;32.87;23.91
46111;BME280;31849;55.992;37.252;2022-08-18T09:34:16;99490.53;;;33.36;23.51
46111;BME280;31849;55.992;37.252;2022-08-18T09:39:29;99484.34;;;32.88;23.46
46111;BME280;31849;55.992;37.252;2022-08-18T09:45:01;99485.50;;;32.75;23.44
46111;BME280;31849;55.992;37.252;2022-08-18T09:55:55;99478.16;;;32.48;24.07
46111;BME280;31849;55.992;37.252;2022-08-18T10:01:32;99484.16;;;32.22;23.82
46111;BME280;31849;55.992;37.252;2022-08-18T10:06:38;99475.06;;;32.43;23.78
46111;BME280;31849;55.992;37.252;2022-08-18T10:17:38;99482.84;;;32.07;24.38
46111;BME280;31849;55.992;37.252;2022-08-18T10:22:51;99475.63;;;32.27;24.71
46111;BME280;31849;55.992;37.252;2022-08-18T10:27:55;99493.47;;;32.18;24.21
46111;BME280;31849;55.992;37.252;2022-08-18T10:33:01;99465.06;;;32.16;24.28
46111;BME280;31849;55.992;37.252;2022-08-18T10:38:23;99468.69;;;32.24;24.24
46111;BME280;31849;55.992;37.252;2022-08-18T10:43:50;99469.56;;;32.05;24.45
46111;BME280;31849;55.992;37.252;2022-08-18T10:49:01;99464.84;;;31.98;25.11
46111;BME280;31849;55.992;37.252;2022-08-18T10:54:14;99463.03;;;32.37;24.02
46111;BME280;31849;55.992;37.252;2022-08-18T10:59:27;99466.44;;;31.90;24.20
46111;BME280;31849;55.992;37.252;2022-08-18T11:04:54;99460.03;;;31.72;24.87
46111;BME280;31849;55.992;37.252;2022-08-18T11:10:15;99464.00;;;31.78;24.47
46111;BME280;31849;55.992;37.252;2022-08-18T11:15:46;99458.91;;;31.84;24.90
46111;BME280;31849;55.992;37.252;2022-08-18T11:21:20;99461.94;;;31.41;25.09
46111;BME280;31849;55.992;37.252;2022-08-18T11:26:28;99457.59;;;31.09;25.01
46111;BME280;31849;55.992;37.252;2022-08-18T11:31:32;99460.34;;;30.97;25.20
46111;BME280;31849;55.992;37.252;2022-08-18T11:36:40;99451.06;;;30.71;25.88
46111;BME280;31849;55.992;37.252;2022-08-18T11:41:51;99448.44;;;30.90;25.59
46111;BME280;31849;55.992;37.252;2022-08-18T11:46:55;99453.56;;;30.93;26.22
46111;BME280;31849;55.992;37.252;2022-08-18T11:52:18;99452.63;;;31.04;26.32
46111;BME280;31849;55.992;37.252;2022-08-18T11:57:42;99437.81;;;31.10;25.78
46111;BME280;31849;55.992;37.252;2022-08-18T12:03:00;99432.03;;;31.14;25.38
46111;BME280;31849;55.992;37.252;2022-08-18T12:08:15;99431.00;;;31.06;25.29
46111;BME280;31849;55.992;37.252;2022-08-18T12:13:41;99438.94;;;30.76;25.62
46111;BME280;31849;55.992;37.252;2022-08-18T12:18:46;99436.41;;;30.84;24.63
46111;BME280;31849;55.992;37.252;2022-08-18T12:23:55;99429.50;;;30.61;25.08
46111;BME280;31849;55.992;37.252;2022-08-18T12:28:59;99456.31;;;30.51;25.40
46111;BME280;31849;55.992;37.252;2022-08-18T12:34:03;99441.31;;;30.48;24.74
46111;BME280;31849;55.992;37.252;2022-08-18T12:39:15;99430.63;;;30.37;24.78
46111;BME280;31849;55.992;37.252;2022-08-18T12:44:21;99430.03;;;30.33;24.39
46111;BME280;31849;55.992;37.252;2022-08-18T12:49:28;99432.59;;;30.14;24.46
46111;BME280;31849;55.992;37.252;2022-08-18T12:54:36;99429.84;;;30.25;24.07
46111;BME280;31849;55.992;37.252;2022-08-18T12:59:56;99424.72;;;30.22;24.08
46111;BME280;31849;55.992;37.252;2022-08-18T13:05:00;99426.50;;;30.12;24.32
46111;BME280;31849;55.992;37.252;2022-08-18T13:10:09;99430.72;;;30.26;24.98
46111;BME280;31849;55.992;37.252;2022-08-18T13:15:33;99429.50;;;30.40;23.90
46111;BME280;31849;55.992;37.252;2022-08-18T13:20:37;99422.59;;;30.16;24.28
46111;BME280;31849;55.992;37.252;2022-08-18T13:25:47;99428.06;;;30.14;23.87
46111;BME280;31849;55.992;37.252;2022-08-18T13:30:51;99422.19;;;29.99;23.31
46111;BME280;31849;55.992;37.252;2022-08-18T13:35:56;99424.16;;;29.97;24.18
46111;BME280;31849;55.992;37.252;2022-08-18T13:41:02;99414.66;;;29.93;24.45
46111;BME280;31849;55.992;37.252;2022-08-18T13:46:09;99423.81;;;29.91;24.27
46111;BME280;31849;55.992;37.252;2022-08-18T13:51:18;99418.31;;;29.92;24.20
46111;BME280;31849;55.992;37.252;2022-08-18T13:56:24;99413.47;;;29.75;24.12
46111;BME280;31849;55.992;37.252;2022-08-18T14:01:32;99427.25;;;29.70;23.40
46111;BME280;31849;55.992;37.252;2022-08-18T14:06:53;99415.97;;;29.67;23.88
46111;BME280;31849;55.992;37.252;2022-08-18T14:12:04;99417.88;;;29.76;23.41
46111;BME280;31849;55.992;37.252;2022-08-18T14:17:24;99414.91;;;29.46;23.71
46111;BME280;31849;55.992;37.252;2022-08-18T14:22:28;99426.25;;;29.39;23.97
46111;BME280;31849;55.992;37.252;2022-08-18T14:27:50;99425.91;;;29.32;23.49
46111;BME280;31849;55.992;37.252;2022-08-18T14:32:58;99442.84;;;29.21;23.48
46111;BME280;31849;55.992;37.252;2022-08-18T14:38:02;99432.00;;;29.23;23.60
46111;BME280;31849;55.992;37.252;2022-08-18T14:43:13;99441.47;;;29.16;23.74
46111;BME280;31849;55.992;37.252;2022-08-18T14:48:19;99445.84;;;29.17;23.91
46111;BME280;31849;55.992;37.252;2022-08-18T14:53:26;99439.53;;;29.18;23.83
46111;BME280;31849;55.992;37.252;2022-08-18T14:58:33;99440.41;;;29.07;24.02
46111;BME280;31849;55.992;37.252;2022-08-18T15:03:39;99439.78;;;28.92;23.77
46111;BME280;31849;55.992;37.252;2022-08-18T15:08:43;99438.69;;;28.94;24.39
46111;BME280;31849;55.992;37.252;2022-08-18T15:13:49;99445.13;;;28.92;24.73
46111;BME280;31849;55.992;37.252;2022-08-18T15:18:56;99437.34;;;28.77;24.33
46111;BME280;31849;55.992;37.252;2022-08-18T15:23:59;99431.75;;;28.69;24.81
46111;BME280;31849;55.992;37.252;2022-08-18T15:29:23;99436.25;;;28.69;24.69
46111;BME280;31849;55.992;37.252;2022-08-18T15:34:30;99446.22;;;28.67;25.43
46111;BME280;31849;55.992;37.252;2022-08-18T15:39:47;99448.22;;;28.52;25.43
46111;BME280;31849;55.992;37.252;2022-08-18T15:45:00;99449.06;;;28.41;25.89
46111;BME280;31849;55.992;37.252;2022-08-18T15:50:15;99451.72;;;28.30;25.93
46111;BME280;31849;55.992;37.252;2022-08-18T15:55:28;99449.00;;;28.18;26.56
46111;BME280;31849;55.992;37.252;2022-08-18T16:00:41;99457.22;;;28.04;26.29
46111;BME280;31849;55.992;37.252;2022-08-18T16:05:48;99451.16;;;27.89;26.89
46111;BME280;31849;55.992;37.252;2022-08-18T16:10:54;99456.47;;;27.78;27.01
46111;BME280;31849;55.992;37.252;2022-08-18T16:15:59;99453.72;;;27.66;27.27
46111;BME280;31849;55.992;37.252;2022-08-18T16:21:03;99456.34;;;27.55;27.46
46111;BME280;31849;55.992;37.252;2022-08-18T16:26:13;99463.25;;;27.33;28.30
46111;BME280;31849;55.992;37.252;2022-08-18T16:31:24;99456.63;;;27.13;28.19
46111;BME280;31849;55.992;37.252;2022-08-18T16:36:29;99468.50;;;26.96;29.07
46111;BME280;31849;55.992;37.252;2022-08-18T16:41:33;99465.00;;;26.83;28.72
46111;BME280;31849;55.992;37.252;2022-08-18T16:46:38;99468.28;;;26.61;28.91
46111;BME280;31849;55.992;37.252;2022-08-18T16:51:41;99480.28;;;26.41;29.30
46111;BME280;31849;55.992;37.252;2022-08-18T16:56:45;99481.66;;;26.21;29.40
46111;BME280;31849;55.992;37.252;2022-08-18T17:01:50;99476.38;;;26.06;29.68
46111;BME280;31849;55.992;37.252;2022-08-18T17:07:11;99459.28;;;25.69;30.01
46111;BME280;31849;55.992;37.252;2022-08-18T17:12:14;99477.81;;;25.70;30.87
46111;BME280;31849;55.992;37.252;2022-08-18T17:17:20;99487.75;;;25.54;30.91
46111;BME280;31849;55.992;37.252;2022-08-18T17:22:23;99498.50;;;25.23;32.18
46111;BME280;31849;55.992;37.252;2022-08-18T17:27:30;99498.88;;;25.17;31.62
46111;BME280;31849;55.992;37.252;2022-08-18T17:32:44;99506.84;;;25.03;32.56
46111;BME280;31849;55.992;37.252;2022-08-18T17:37:52;99507.53;;;24.92;32.29
46111;BME280;31849;55.992;37.252;2022-08-18T17:43:00;99502.28;;;24.76;32.96
46111;BME280;31849;55.992;37.252;2022-08-18T17:48:12;99505.31;;;24.70;33.04
46111;BME280;31849;55.992;37.252;2022-08-18T17:53:16;99500.03;;;24.54;33.46
46111;BME280;31849;55.992;37.252;2022-08-18T17:58:24;99504.03;;;24.47;33.81
46111;BME280;31849;55.992;37.252;2022-08-18T18:03:31;99509.38;;;24.31;34.44
46111;BME280;31849;55.992;37.252;2022-08-18T18:08:48;99508.09;;;24.22;34.50
46111;BME280;31849;55.992;37.252;2022-08-18T18:13:53;99517.91;;;24.05;34.71
46111;BME280;31849;55.992;37.252;2022-08-18T18:19:00;99516.47;;;24.00;34.90
46111;BME280;31849;55.992;37.252;2022-08-18T18:24:13;99515.00;;;23.94;34.91
46111;BME280;31849;55.992;37.252;2022-08-18T18:29:20;99521.50;;;23.88;35.11
46111;BME280;31849;55.992;37.252;2022-08-18T18:34:34;99518.59;;;23.77;35.78
46111;BME280;31849;55.992;37.252;2022-08-18T18:39:53;99504.03;;;23.52;36.32
46111;BME280;31849;55.992;37.252;2022-08-18T18:45:00;99516.44;;;23.52;35.94
46111;BME280;31849;55.992;37.252;2022-08-18T18:50:11;99527.41;;;23.46;36.55
46111;BME280;31849;55.992;37.252;2022-08-18T18:55:22;99529.59;;;23.38;37.00
46111;BME280;31849;55.992;37.252;2022-08-18T19:00:32;99530.28;;;23.25;37.17
46111;BME280;31849;55.992;37.252;2022-08-18T19:05:44;99537.88;;;23.15;37.96
46111;BME280;31849;55.992;37.252;2022-08-18T19:10:56;99550.28;;;23.15;37.43
46111;BME280;31849;55.992;37.252;2022-08-18T19:16:04;99557.81;;;23.05;37.52
46111;BME280;31849;55.992;37.252;2022-08-18T19:21:26;99552.84;;;22.99;38.03
46111;BME280;31849;55.992;37.252;2022-08-18T19:26:54;99552.91;;;22.97;37.99
46111;BME280;31849;55.992;37.252;2022-08-18T19:32:03;99555.91;;;22.91;38.62
46111;BME280;31849;55.992;37.252;2022-08-18T19:37:16;99565.56;;;22.92;38.96
46111;BME280;31849;55.992;37.252;2022-08-18T19:42:33;99557.78;;;22.72;38.73
46111;BME280;31849;55.992;37.252;2022-08-18T19:47:46;99577.44;;;22.85;38.84
46111;BME280;31849;55.992;37.252;2022-08-18T19:53:08;99585.53;;;22.82;38.53
46111;BME280;31849;55.992;37.252;2022-08-18T19:58:41;99586.94;;;22.72;39.14
46111;BME280;31849;55.992;37.252;2022-08-18T20:04:22;99601.59;;;22.61;39.58
46111;BME280;31849;55.992;37.252;2022-08-18T20:09:42;99590.97;;;22.44;39.88
46111;BME280;31849;55.992;37.252;2022-08-18T20:14:59;99593.19;;;22.34;40.75
46111;BME280;31849;55.992;37.252;2022-08-18T20:20:11;99606.88;;;22.25;41.50
46111;BME280;31849;55.992;37.252;2022-08-18T20:25:36;99607.94;;;22.21;41.29
46111;BME280;31849;55.992;37.252;2022-08-18T20:30:54;99621.25;;;22.19;41.22
46111;BME280;31849;55.992;37.252;2022-08-18T20:36:26;99624.34;;;22.10;41.88
46111;BME280;31849;55.992;37.252;2022-08-18T20:41:43;99611.69;;;21.98;41.94
46111;BME280;31849;55.992;37.252;2022-08-18T20:46:56;99625.09;;;21.94;42.26
46111;BME280;31849;55.992;37.252;2022-08-18T20:52:14;99643.75;;;21.91;42.99
46111;BME280;31849;55.992;37.252;2022-08-18T20:57:34;99645.03;;;21.83;42.93
46111;BME280;31849;55.992;37.252;2022-08-18T21:02:39;99647.09;;;21.76;43.33
46111;BME280;31849;55.992;37.252;2022-08-18T21:07:59;99643.47;;;21.78;43.49
46111;BME280;31849;55.992;37.252;2022-08-18T21:13:05;99649.59;;;21.79;43.78
46111;BME280;31849;55.992;37.252;2022-08-18T21:18:19;99659.41;;;21.77;44.54
46111;BME280;31849;55.992;37.252;2022-08-18T21:23:26;99655.84;;;21.78;44.61
46111;BME280;31849;55.992;37.252;2022-08-18T21:28:35;99659.41;;;21.77;44.57
46111;BME280;31849;55.992;37.252;2022-08-18T21:33:48;99658.28;;;21.83;44.36
46111;BME280;31849;55.992;37.252;2022-08-18T21:38:53;99670.84;;;21.77;44.64
46111;BME280;31849;55.992;37.252;2022-08-18T21:44:14;99675.22;;;21.78;44.96
46111;BME280;31849;55.992;37.252;2022-08-18T21:49:24;99669.28;;;21.73;45.06
46111;BME280;31849;55.992;37.252;2022-08-18T21:54:30;99671.25;;;21.68;44.93
46111;BME280;31849;55.992;37.252;2022-08-18T22:00:09;99681.78;;;21.70;45.41
46111;BME280;31849;55.992;37.252;2022-08-18T22:05:24;99692.72;;;21.62;45.48
46111;BME280;31849;55.992;37.252;2022-08-18T22:10:30;99693.97;;;21.53;45.38
46111;BME280;31849;55.992;37.252;2022-08-18T22:15:53;99696.13;;;21.43;45.74
46111;BME280;31849;55.992;37.252;2022-08-18T22:20:58;99695.59;;;21.35;45.94
46111;BME280;31849;55.992;37.252;2022-08-18T22:26:08;99699.44;;;21.28;46.35
46111;BME280;31849;55.992;37.252;2022-08-18T22:31:14;99686.06;;;21.11;46.52
46111;BME280;31849;55.992;37.252;2022-08-18T22:36:25;99697.75;;;21.05;47.11
46111;BME280;31849;55.992;37.252;2022-08-18T22:41:29;99676.97;;;20.75;47.21
46111;BME280;31849;55.992;37.252;2022-08-18T22:46:34;99699.56;;;20.82;47.44
46111;BME280;31849;55.992;37.252;2022-08-18T22:51:38;99692.16;;;20.70;47.87
46111;BME280;31849;55.992;37.252;2022-08-18T22:56:42;99689.09;;;20.57;48.26
46111;BME280;31849;55.992;37.252;2022-08-18T23:01:58;99699.06;;;20.50;48.46
46111;BME280;31849;55.992;37.252;2022-08-18T23:07:02;99702.63;;;20.49;48.55
46111;BME280;31849;55.992;37.252;2022-08-18T23:12:08;99684.56;;;20.38;48.33
46111;BME280;31849;55.992;37.252;2022-08-18T23:17:16;99701.31;;;20.37;48.83
46111;BME280;31849;55.992;37.252;2022-08-18T23:22:19;99707.56;;;20.35;48.92
46111;BME280;31849;55.992;37.252;2022-08-18T23:27:23;99718.50;;;20.26;49.02
46111;BME280;31849;55.992;37.252;2022-08-18T23:32:28;99711.31;;;20.29;48.91
46111;BME280;31849;55.992;37.252;2022-08-18T23:37:33;99726.41;;;20.26;49.09
46111;BME280;31849;55.992;37.252;2022-08-18T23:42:36;99728.16;;;20.27;49.01
46111;BME280;31849;55.992;37.252;2022-08-18T23:47:41;99717.59;;;20.27;48.79
46111;BME280;31849;55.992;37.252;2022-08-18T23:52:44;99730.44;;;20.36;48.70
46111;BME280;31849;55.992;37.252;2022-08-18T23:57:50;99744.44;;;20.38;48.92
